Time;durP1;ratioP1;P1;durP2;ratioP2;P2;SDS_P1;SDS_P2;PMS_P1;PMS_P2;Temp;Humidity;BMP_temperature;BMP_pressure;BME280_temperature;BME280_humidity;BME280_pressure;Samples;Min_cycle;Max_cycle;Signal;HPM_P1;HPM_P2
2022/05/31 00:00:38;;;;;;;12.85;4.88;;;;;;;16.45;53.02;100331.28;4978319;28;20055;-79
2022/05/31 00:03:10;;;;;;;8.85;4.40;;;;;;;16.47;52.92;100331.25;4978247;28;20109;-78
2022/05/31 00:05:37;;;;;;;10.82;4.50;;;;;;;16.43;53.18;100330.41;4978041;28;20505;-79
2022/05/31 00:08:04;;;;;;;7.75;3.58;;;;;;;16.36;53.54;100332.28;4978607;28;20062;-78
2022/05/31 00:10:32;;;;;;;9.38;4.03;;;;;;;16.29;53.64;100330.63;4977957;28;20055;-78
2022/05/31 00:12:59;;;;;;;9.40;4.05;;;;;;;16.24;53.92;100332.44;4977607;28;20105;-78
2022/05/31 00:15:26;;;;;;;12.35;4.43;;;;;;;16.22;53.84;100328.06;4977927;28;20054;-78
2022/05/31 00:17:54;;;;;;;8.82;3.80;;;;;;;16.15;53.90;100317.63;4978159;28;20054;-78
2022/05/31 00:20:21;;;;;;;7.70;3.60;;;;;;;16.15;53.79;100325.53;4960421;28;20090;-78
2022/05/31 00:22:48;;;;;;;9.88;3.95;;;;;;;16.12;53.92;100332.59;4977945;28;20063;-77
2022/05/31 00:25:16;;;;;;;8.23;3.78;;;;;;;15.96;54.30;100297.66;4978178;28;20065;-77
2022/05/31 00:27:44;;;;;;;8.17;3.50;;;;;;;16.00;53.86;100316.91;4977404;28;20403;-78
2022/05/31 00:30:13;;;;;;;6.72;3.28;;;;;;;16.05;53.99;100330.94;4977558;28;20059;-78
2022/05/31 00:32:44;;;;;;;11.85;3.85;;;;;;;15.94;54.01;100295.03;4977838;28;20081;-77
2022/05/31 00:35:18;;;;;;;8.55;3.65;;;;;;;16.01;54.23;100311.63;4977691;28;20142;-77
2022/05/31 00:37:45;;;;;;;9.55;3.58;;;;;;;15.91;54.38;100296.81;4978069;28;20066;-77
2022/05/31 00:40:14;;;;;;;10.00;4.03;;;;;;;16.05;54.63;100339.69;4977487;28;20051;-78
2022/05/31 00:42:54;;;;;;;11.38;4.13;;;;;;;16.04;55.10;100337.94;4976630;28;20061;-75
2022/05/31 00:45:46;;;;;;;11.68;4.35;;;;;;;15.99;55.46;100338.91;4978067;28;20058;-77
2022/05/31 00:48:19;;;;;;;11.38;4.35;;;;;;;15.92;55.84;100328.41;4967779;28;20066;-79
2022/05/31 00:51:01;;;;;;;9.63;4.53;;;;;;;15.93;56.43;100331.91;4985503;28;20121;-77
2022/05/31 00:53:38;;;;;;;6.22;3.72;;;;;;;15.95;56.70;100335.41;4969609;28;20092;-77
2022/05/31 00:56:14;;;;;;;9.40;3.88;;;;;;;15.77;56.68;100326.81;4960696;28;20046;-78
2022/05/31 00:58:47;;;;;;;10.98;3.85;;;;;;;15.74;57.08;100310.16;4979723;28;20054;-78
2022/05/31 01:01:16;;;;;;;7.63;3.63;;;;;;;15.84;56.94;100335.53;4976258;28;20043;-77
2022/05/31 01:03:44;;;;;;;10.10;4.33;;;;;;;15.83;57.48;100346.06;4959092;28;20424;-80
2022/05/31 01:06:12;;;;;;;8.18;3.85;;;;;;;15.70;57.59;100332.13;4976052;28;20079;-77
2022/05/31 01:08:45;;;;;;;6.32;3.65;;;;;;;15.56;58.00;100317.34;4959229;28;20055;-78
2022/05/31 01:11:41;;;;;;;5.00;4.00;;;;;;;15.63;58.32;100333.94;4976154;28;20055;-77
2022/05/31 01:14:27;;;;;;;12.75;4.65;;;;;;;15.57;58.62;100344.53;4976130;28;20054;-77
2022/05/31 01:17:19;;;;;;;8.80;3.90;;;;;;;15.41;58.46;100319.25;4976464;28;20465;-78
2022/05/31 01:20:07;;;;;;;7.75;3.80;;;;;;;15.43;59.16;100342.03;4977003;28;20054;-78
2022/05/31 01:23:19;;;;;;;9.05;3.95;;;;;;;15.38;58.78;100346.50;4960625;28;20050;-77
2022/05/31 01:26:07;;;;;;;9.73;4.15;;;;;;;15.30;58.82;100322.00;4898055;29;20073;-78
2022/05/31 01:28:42;;;;;;;10.25;3.90;;;;;;;15.45;58.71;100337.63;4875827;29;20053;-77
2022/05/31 01:31:35;;;;;;;12.73;4.10;;;;;;;15.53;58.78;100337.56;4948548;28;20066;-78
2022/05/31 01:34:29;;;;;;;9.23;3.80;;;;;;;15.48;58.95;100353.41;4953140;29;20445;-78
2022/05/31 01:36:58;;;;;;;7.88;3.67;;;;;;;15.30;59.33;100314.97;4956287;29;20147;-78
2022/05/31 01:39:31;;;;;;;11.27;4.40;;;;;;;15.45;59.58;100339.41;4923240;29;20091;-77
2022/05/31 01:42:20;;;;;;;10.73;4.20;;;;;;;15.42;59.13;100345.53;4954909;29;20154;-79
2022/05/31 01:44:58;;;;;;;13.57;4.35;;;;;;;15.44;59.52;100335.88;4956192;29;20055;-77
2022/05/31 01:47:25;;;;;;;8.75;4.45;;;;;;;15.27;59.68;100317.63;4938322;29;20079;-76
2022/05/31 01:49:54;;;;;;;9.88;4.38;;;;;;;15.48;59.62;100355.16;4955842;28;20114;-77
2022/05/31 01:52:22;;;;;;;8.63;4.00;;;;;;;15.27;60.17;100325.53;4955144;29;20062;-78
2022/05/31 01:54:52;;;;;;;10.02;4.47;;;;;;;15.47;60.23;100345.53;4955021;28;20098;-77
2022/05/31 01:57:21;;;;;;;8.32;3.97;;;;;;;15.45;59.97;100339.41;4955794;29;20145;-77
2022/05/31 02:00:04;;;;;;;8.27;4.10;;;;;;;15.51;60.10;100342.84;4955946;28;20153;-78
2022/05/31 02:02:41;;;;;;;13.40;4.55;;;;;;;15.48;60.25;100334.97;4955954;28;20114;-78
2022/05/31 02:05:09;;;;;;;14.27;4.38;;;;;;;15.54;60.34;100355.09;4956004;28;20497;-77
2022/05/31 02:07:36;;;;;;;11.75;4.40;;;;;;;15.42;60.66;100326.25;4955911;28;20054;-78
2022/05/31 02:10:06;;;;;;;10.82;4.45;;;;;;;15.57;60.98;100342.81;4954603;29;20058;-78
2022/05/31 02:12:40;;;;;;;10.65;4.28;;;;;;;15.64;60.91;100347.97;4954469;29;20058;-77
2022/05/31 02:15:37;;;;;;;7.40;4.15;;;;;;;15.63;60.65;100348.88;4954437;29;20059;-77
2022/05/31 02:19:15;;;;;;;10.73;4.40;;;;;;;15.65;60.84;100361.13;4955537;28;20055;-78
2022/05/31 02:21:46;;;;;;;8.07;4.25;;;;;;;15.51;61.14;100340.22;4935888;28;20142;-77
2022/05/31 02:24:14;;;;;;;8.13;4.30;;;;;;;15.64;60.84;100359.41;4956583;28;20472;-77
2022/05/31 02:26:43;;;;;;;10.48;4.78;;;;;;;15.68;61.18;100374.31;4974533;28;20073;-77
2022/05/31 02:29:14;;;;;;;11.98;4.70;;;;;;;15.65;61.74;100378.72;4974667;28;20465;-77
2022/05/31 02:31:41;;;;;;;9.65;4.70;;;;;;;15.74;61.59;100376.91;4957161;28;20051;-77
2022/05/31 02:34:09;;;;;;;8.30;4.30;;;;;;;15.86;61.21;100367.13;4974621;28;20443;-77
2022/05/31 02:36:37;;;;;;;11.52;4.80;;;;;;;16.03;60.74;100372.22;4957270;28;20061;-78
2022/05/31 02:39:05;;;;;;;11.77;4.65;;;;;;;16.10;60.48;100373.91;4974698;28;20063;-78
2022/05/31 02:41:38;;;;;;;8.63;4.22;;;;;;;16.17;60.13;100376.47;4973986;28;20055;-77
2022/05/31 02:44:06;;;;;;;10.65;4.28;;;;;;;16.10;60.11;100366.00;4956757;28;20153;-77
2022/05/31 02:46:35;;;;;;;7.28;3.92;;;;;;;16.01;59.67;100337.97;4959787;28;20069;-78
2022/05/31 02:49:04;;;;;;;10.57;4.55;;;;;;;16.14;59.99;100368.56;4976572;28;20064;-77
2022/05/31 02:51:37;;;;;;;10.40;4.50;;;;;;;16.15;59.78;100366.78;4976184;28;20089;-77
2022/05/31 02:54:05;;;;;;;9.70;4.50;;;;;;;16.28;59.22;100378.97;4993937;28;20432;-78
2022/05/31 02:56:51;;;;;;;7.88;4.05;;;;;;;16.38;59.11;100370.03;4994386;28;20074;-78
2022/05/31 02:59:36;;;;;;;10.15;4.35;;;;;;;16.56;58.71;100378.59;4993670;28;20151;-77
2022/05/31 03:02:22;;;;;;;5.35;3.20;;;;;;;16.58;58.07;100355.72;4974371;28;20133;-78
2022/05/31 03:05:08;;;;;;;10.18;3.70;;;;;;;16.84;57.32;100372.97;4974330;28;20055;-78
2022/05/31 03:07:54;;;;;;;10.52;3.67;;;;;;;17.01;56.77;100388.59;4975299;28;20056;-79
2022/05/31 03:10:33;;;;;;;7.38;3.63;;;;;;;17.03;56.31;100379.75;4962322;28;20051;-78
2022/05/31 03:13:02;;;;;;;7.97;3.50;;;;;;;17.12;56.25;100369.06;4957779;28;20113;-78
2022/05/31 03:15:33;;;;;;;9.02;3.70;;;;;;;17.20;55.90;100383.00;4956812;28;20051;-77
2022/05/31 03:18:08;;;;;;;7.28;3.03;;;;;;;17.12;55.88;100371.72;4974159;28;20055;-78
2022/05/31 03:20:44;;;;;;;5.57;3.22;;;;;;;17.13;55.43;100391.91;4974600;28;20055;-78
2022/05/31 03:23:17;;;;;;;9.13;3.40;;;;;;;17.11;55.46;100403.38;4976242;28;20065;-79
2022/05/31 03:25:47;;;;;;;6.82;3.55;;;;;;;17.09;55.53;100394.63;4977788;28;20450;-78
2022/05/31 03:28:17;;;;;;;7.38;2.80;;;;;;;17.02;55.34;100399.13;4946184;28;20050;-78
2022/05/31 03:30:45;;;;;;;7.30;2.85;;;;;;;16.97;55.93;100403.56;4993710;28;20066;-79
2022/05/31 03:33:13;;;;;;;8.05;3.13;;;;;;;17.02;55.59;100406.19;4996696;28;20035;-78
2022/05/31 03:35:41;;;;;;;4.95;3.17;;;;;;;17.01;55.68;100393.84;4990788;28;20416;-78
2022/05/31 03:38:25;;;;;;;5.50;2.50;;;;;;;17.03;55.55;100389.44;4956757;28;20416;-79
2022/05/31 03:40:59;;;;;;;6.68;2.65;;;;;;;17.20;55.28;100404.09;4940911;28;20054;-78
2022/05/31 03:43:44;;;;;;;5.90;2.58;;;;;;;17.28;54.52;100372.31;4986263;28;20096;-78
2022/05/31 03:46:20;;;;;;;3.33;2.30;;;;;;;17.57;54.33;100408.84;4992553;28;20058;-77
2022/05/31 03:48:54;;;;;;;3.10;2.20;;;;;;;17.48;54.23;100387.84;4976639;28;20082;-77
2022/05/31 03:51:22;;;;;;;6.68;2.85;;;;;;;17.67;53.95;100413.94;4956419;28;20139;-77
2022/05/31 03:53:52;;;;;;;6.72;2.67;;;;;;;17.67;54.19;100425.38;4956447;28;20536;-78
2022/05/31 03:56:31;;;;;;;7.55;2.63;;;;;;;17.48;54.03;100386.97;4956311;28;20077;-79
2022/05/31 03:58:59;;;;;;;3.95;2.40;;;;;;;17.50;54.21;100407.16;4956537;28;20055;-78
2022/05/31 04:01:28;;;;;;;6.07;2.10;;;;;;;17.55;54.17;100407.09;4966717;28;20046;-81
2022/05/31 04:03:56;;;;;;;6.18;2.35;;;;;;;17.64;54.17;100414.88;4944843;28;20151;-79
2022/05/31 04:06:23;;;;;;;4.05;2.20;;;;;;;17.63;53.95;100399.91;4958856;28;20054;-77
2022/05/31 04:08:52;;;;;;;3.97;2.35;;;;;;;17.75;53.69;100393.56;4964951;28;20102;-76
2022/05/31 04:11:19;;;;;;;4.50;2.42;;;;;;;18.03;52.82;100417.75;4963953;28;20484;-78
2022/05/31 04:13:47;;;;;;;3.92;2.30;;;;;;;18.20;52.60;100426.22;4965991;28;20086;-77
2022/05/31 04:16:38;;;;;;;7.30;2.50;;;;;;;18.25;52.74;100418.19;4959721;28;20432;-78
2022/05/31 04:19:10;;;;;;;4.25;2.28;;;;;;;18.38;52.49;100414.41;4959539;28;20062;-76
2022/05/31 04:21:41;;;;;;;7.18;2.85;;;;;;;18.46;52.57;100418.69;4959237;28;20547;-77
2022/05/31 04:24:11;;;;;;;6.65;2.63;;;;;;;18.48;52.30;100411.59;4967430;28;20055;-77
2022/05/31 04:26:44;;;;;;;5.07;2.30;;;;;;;18.55;52.05;100411.44;4976561;28;20059;-77
2022/05/31 04:29:30;;;;;;;4.90;2.50;;;;;;;18.65;51.51;100412.13;4983446;28;20062;-77
2022/05/31 04:32:17;;;;;;;3.22;2.88;;;;;;;18.59;51.61;100407.81;4994693;28;20054;-78
2022/05/31 04:34:52;;;;;;;5.20;3.00;;;;;;;18.37;51.57;100338.63;4995661;28;20149;-77
2022/05/31 04:37:21;;;;;;;8.68;4.05;;;;;;;18.80;51.10;100390.66;4978100;28;20050;-78
2022/05/31 04:39:55;;;;;;;8.52;4.00;;;;;;;19.06;50.87;100401.53;4996490;28;20054;-77
2022/05/31 04:42:39;;;;;;;9.25;4.15;;;;;;;19.30;49.81;100379.78;4979066;28;20056;-77
2022/05/31 04:45:09;;;;;;;10.82;4.75;;;;;;;19.53;49.12;100388.94;4979404;28;20058;-76
2022/05/31 04:47:38;;;;;;;8.65;4.40;;;;;;;19.59;49.13;100387.00;4976989;28;20496;-79
2022/05/31 04:50:07;;;;;;;10.57;4.10;;;;;;;19.92;48.54;100396.78;4988362;28;20507;-78
2022/05/31 04:52:39;;;;;;;9.80;4.00;;;;;;;19.99;48.16;100393.06;4970519;28;20137;-78
2022/05/31 04:55:16;;;;;;;5.20;3.65;;;;;;;20.15;48.17;100393.53;4971410;28;20051;-80
2022/05/31 04:57:50;;;;;;;6.40;3.83;;;;;;;20.16;48.13;100384.66;4968503;28;20055;-77
2022/05/31 05:00:18;;;;;;;8.02;3.83;;;;;;;19.88;48.58;100395.16;4979846;28;20064;-78
2022/05/31 05:03:16;;;;;;;5.60;3.80;;;;;;;19.63;49.37;100399.25;4970294;28;20050;-79
2022/05/31 05:05:43;;;;;;;4.65;3.85;;;;;;;19.45;49.84;100394.44;4984959;28;20050;-77
2022/05/31 05:08:15;;;;;;;11.57;4.30;;;;;;;19.46;50.01;100388.22;4985214;28;20053;-79
2022/05/31 05:10:46;;;;;;;6.47;3.80;;;;;;;19.13;50.49;100366.94;5003236;28;20059;-79
2022/05/31 05:13:33;;;;;;;6.57;3.85;;;;;;;19.25;50.68;100389.59;4989641;28;20046;-77
2022/05/31 05:16:11;;;;;;;10.57;4.00;;;;;;;19.44;50.15;100396.22;4977445;28;20055;-76
2022/05/31 05:18:40;;;;;;;10.57;4.18;;;;;;;19.21;50.59;100396.78;4959714;28;20065;-79
2022/05/31 05:21:11;;;;;;;7.68;3.80;;;;;;;19.06;50.59;100390.94;4960557;28;20061;-78
2022/05/31 05:23:42;;;;;;;6.03;3.47;;;;;;;19.09;50.80;100394.41;4964274;28;20497;-80
2022/05/31 05:26:16;;;;;;;6.07;3.67;;;;;;;19.08;50.87;100397.06;4960289;28;20059;-79
2022/05/31 05:31:56;;;;;;;6.32;4.70;;;;;;;18.73;51.50;100401.34;4959123;28;20062;-77
2022/05/31 05:34:42;;;;;;;11.93;5.38;;;;;;;18.49;51.65;100381.59;4976257;28;20484;-77
2022/05/31 05:37:19;;;;;;;10.52;5.40;;;;;;;18.53;52.14;100383.28;4959137;28;20050;-77
2022/05/31 05:39:49;;;;;;;12.32;5.10;;;;;;;18.40;52.79;100387.94;4959088;28;20058;-78
2022/05/31 05:42:57;;;;;;;9.45;5.30;;;;;;;18.38;52.73;100376.53;4953251;28;20054;-78
2022/05/31 05:45:45;;;;;;;6.85;4.63;;;;;;;18.30;52.49;100341.41;4962446;28;20062;-79
2022/05/31 05:48:12;;;;;;;9.18;4.22;;;;;;;18.41;51.66;100335.03;4959998;28;20057;-77
2022/05/31 05:50:40;;;;;;;4.05;3.55;;;;;;;18.73;51.24;100367.81;4977635;28;20085;-80
2022/05/31 05:53:10;;;;;;;10.80;4.50;;;;;;;18.90;51.33;100356.03;4986077;28;20509;-78
2022/05/31 05:55:58;;;;;;;12.55;5.03;;;;;;;18.69;51.50;100349.41;4978844;28;20050;-77
2022/05/31 05:58:44;;;;;;;10.38;4.60;;;;;;;18.44;52.21;100354.38;4981119;28;20153;-77
2022/05/31 06:01:38;;;;;;;8.70;4.30;;;;;;;18.26;52.64;100347.69;4980480;28;20051;-77
2022/05/31 06:04:54;;;;;;;5.30;3.10;;;;;;;18.11;53.24;100346.22;4958007;28;20146;-77
2022/05/31 06:07:33;;;;;;;6.35;3.40;;;;;;;17.99;53.43;100361.41;4957851;28;20117;-76
2022/05/31 06:10:16;;;;;;;7.97;3.10;;;;;;;18.06;53.34;100366.59;4957908;28;20055;-75
2022/05/31 06:12:52;;;;;;;8.13;3.15;;;;;;;18.10;53.69;100344.47;4974982;28;20058;-76
2022/05/31 06:15:30;;;;;;;5.50;2.90;;;;;;;18.21;53.54;100366.28;4957990;28;20047;-77
2022/05/31 06:18:00;;;;;;;4.72;2.75;;;;;;;18.19;53.54;100371.59;4957650;28;20517;-76
2022/05/31 06:20:29;;;;;;;7.03;3.30;;;;;;;18.23;53.38;100345.09;4957371;28;20090;-77
2022/05/31 06:23:00;;;;;;;7.50;3.42;;;;;;;18.30;53.43;100338.78;4957754;28;20086;-77
2022/05/31 06:25:30;;;;;;;10.20;3.47;;;;;;;18.54;53.33;100355.91;4953958;29;20059;-77
2022/05/31 06:28:17;;;;;;;7.38;2.78;;;;;;;18.76;53.01;100361.63;4954533;29;20094;-77
2022/05/31 06:30:47;;;;;;;6.43;3.10;;;;;;;19.05;52.18;100353.00;4956599;28;20079;-80
2022/05/31 06:33:18;;;;;;;4.30;2.30;;;;;;;19.29;51.60;100348.91;4963475;28;20051;-77
2022/05/31 06:35:48;;;;;;;5.03;2.35;;;;;;;19.65;50.91;100343.56;4962828;28;20071;-77
2022/05/31 06:38:17;;;;;;;3.05;2.10;;;;;;;19.92;49.62;100331.41;4951426;28;20097;-78
2022/05/31 06:40:47;;;;;;;3.75;2.15;;;;;;;20.33;48.64;100345.25;4965974;28;20082;-77
2022/05/31 06:43:22;;;;;;;4.63;2.20;;;;;;;20.71;48.19;100353.00;4954643;29;20055;-76
2022/05/31 06:46:31;;;;;;;3.60;2.25;;;;;;;20.60;48.31;100332.97;4930441;29;20051;-78
2022/05/31 06:49:21;;;;;;;3.47;2.05;;;;;;;20.86;47.55;100356.09;4956269;29;20640;-76
2022/05/31 06:58:19;;;;;;;3.83;2.17;;;;;;;21.57;45.74;100342.28;4955118;29;20047;-76
2022/05/31 07:00:53;;;;;;;2.63;1.98;;;;;;;21.63;44.86;100334.97;4953890;29;20055;-76
2022/05/31 07:03:22;;;;;;;3.40;1.75;;;;;;;21.33;44.95;100330.69;4953937;29;20063;-76
2022/05/31 07:05:59;;;;;;;3.53;1.80;;;;;;;20.92;45.50;100324.94;4953732;29;20161;-77
2022/05/31 07:08:26;;;;;;;2.30;1.67;;;;;;;20.94;45.97;100337.25;4954167;29;20051;-78
2022/05/31 07:10:57;;;;;;;3.58;1.85;;;;;;;20.92;46.31;100338.22;4956818;28;20519;-76
2022/05/31 07:13:43;;;;;;;3.90;2.03;;;;;;;20.54;46.88;100343.78;4954911;29;20055;-78
2022/05/31 07:16:34;;;;;;;4.18;1.75;;;;;;;20.35;47.80;100342.53;4955124;29;20054;-77
2022/05/31 07:19:25;;;;;;;4.50;1.80;;;;;;;20.36;47.94;100328.38;4946825;28;20090;-77
2022/05/31 07:22:15;;;;;;;3.60;1.87;;;;;;;20.10;48.36;100337.09;4956087;29;20055;-75
2022/05/31 07:24:42;;;;;;;3.13;1.60;;;;;;;19.83;48.56;100315.72;4955156;29;20389;-77
2022/05/31 07:27:18;;;;;;;2.78;1.85;;;;;;;19.91;49.15;100324.34;4952693;29;20051;-78
2022/05/31 07:29:46;;;;;;;3.80;1.67;;;;;;;20.00;48.58;100318.81;4952913;29;20152;-76
2022/05/31 07:32:13;;;;;;;3.55;1.80;;;;;;;20.11;48.73;100318.50;4952910;29;20051;-77
2022/05/31 07:35:01;;;;;;;2.00;1.77;;;;;;;20.13;47.98;100331.69;4953015;29;20098;-79
2022/05/31 07:37:29;;;;;;;2.80;1.50;;;;;;;19.97;48.28;100313.56;4953120;29;20062;-78
2022/05/31 07:40:03;;;;;;;2.97;1.55;;;;;;;19.97;47.73;100312.72;4956319;29;20055;-79
2022/05/31 07:42:37;;;;;;;6.38;1.60;;;;;;;19.93;47.50;100319.88;4958976;29;20114;-77
2022/05/31 07:45:05;;;;;;;6.05;1.80;;;;;;;19.98;47.90;100310.03;4956409;29;20509;-76
2022/05/31 07:47:32;;;;;;;2.85;1.73;;;;;;;20.17;47.63;100315.66;4958514;29;20051;-77
2022/05/31 07:50:03;;;;;;;6.25;1.83;;;;;;;20.22;47.00;100312.88;4972194;29;20122;-79
2022/05/31 07:52:54;;;;;;;;;;;;;;;20.16;47.46;100313.06;4972550;28;20062;-76
2022/05/31 07:56:06;;;;;;;3.08;1.92;;;;;;;20.29;46.89;100314.44;4957418;29;19949;-77
2022/05/31 07:58:54;;;;;;;1.65;1.55;;;;;;;20.62;45.74;100319.66;4957544;28;20071;-78
2022/05/31 08:01:44;;;;;;;4.57;1.67;;;;;;;20.68;45.71;100311.50;4957265;29;20083;-77
2022/05/31 08:04:37;;;;;;;4.03;2.00;;;;;;;20.84;45.77;100317.19;4961038;28;20055;-81
2022/05/31 08:07:11;;;;;;;2.75;2.10;;;;;;;21.06;45.08;100320.91;4967558;28;20047;-78
2022/05/31 08:09:39;;;;;;;2.42;2.22;;;;;;;21.18;45.18;100318.78;4965967;28;20048;-79
2022/05/31 08:12:09;;;;;;;4.80;2.28;;;;;;;21.31;44.76;100316.56;4966359;28;20106;-80
2022/05/31 08:14:38;;;;;;;5.35;2.42;;;;;;;20.84;45.53;100245.50;4964580;28;20096;-77
2022/05/31 08:17:06;;;;;;;4.00;2.45;;;;;;;21.22;45.53;100325.72;4966957;28;20055;-77
2022/05/31 08:19:37;;;;;;;4.70;2.67;;;;;;;20.92;46.49;100316.97;4965712;28;20536;-76
2022/05/31 08:22:06;;;;;;;7.03;2.85;;;;;;;20.69;47.01;100334.47;4966505;28;20055;-78
2022/05/31 08:24:34;;;;;;;3.25;2.58;;;;;;;20.63;46.89;100326.72;4970345;28;20121;-77
2022/05/31 08:27:13;;;;;;;4.70;2.67;;;;;;;20.25;47.07;100318.94;4984209;28;20057;-77
2022/05/31 08:29:42;;;;;;;3.67;2.30;;;;;;;20.11;46.67;100333.53;4984694;28;20124;-76
2022/05/31 08:32:10;;;;;;;8.02;2.63;;;;;;;19.84;47.55;100294.50;4985994;28;20566;-78
2022/05/31 08:34:38;;;;;;;5.88;2.90;;;;;;;19.85;47.97;100308.59;4984373;28;20047;-77
2022/05/31 08:37:05;;;;;;;4.93;3.00;;;;;;;19.67;48.31;100298.50;4983580;28;20059;-76
2022/05/31 08:39:32;;;;;;;3.38;2.33;;;;;;;19.84;48.44;100321.00;4981866;28;20054;-78
2022/05/31 08:42:13;;;;;;;3.42;2.53;;;;;;;19.86;48.33;100318.31;4982962;28;20061;-76
2022/05/31 08:45:19;;;;;;;4.38;2.78;;;;;;;19.74;48.54;100327.44;4983840;28;20057;-78
2022/05/31 08:47:58;;;;;;;3.28;2.35;;;;;;;19.58;48.45;100300.47;4976373;28;20508;-77
2022/05/31 08:57:09;;;;;;;4.28;2.30;;;;;;;19.64;49.14;100320.66;4984042;28;20077;-76
2022/05/31 09:00:04;;;;;;;3.88;2.10;;;;;;;19.74;48.96;100318.63;5010220;28;20065;-76
2022/05/31 09:02:43;;;;;;;3.70;2.38;;;;;;;19.63;49.46;100316.25;5000557;28;20157;-77
2022/05/31 09:05:23;;;;;;;;;;;;;;;19.33;49.72;100313.47;4996327;28;20050;-77
2022/05/31 09:07:57;;;;;;;4.45;2.17;;;;;;;19.38;49.56;100293.06;4995337;28;19979;-77
2022/05/31 09:10:31;;;;;;;2.97;2.08;;;;;;;19.59;49.31;100310.16;4977141;28;20050;-78
2022/05/31 09:13:05;;;;;;;2.92;2.30;;;;;;;19.49;49.99;100306.03;4994642;28;20144;-79
2022/05/31 09:15:44;;;;;;;2.92;2.35;;;;;;;19.37;49.99;100301.91;4994807;28;20062;-77
2022/05/31 09:18:35;;;;;;;5.53;3.10;;;;;;;19.38;50.61;100313.34;4994937;28;20077;-77
2022/05/31 09:21:04;;;;;;;3.90;2.22;;;;;;;19.20;51.03;100294.38;4994566;28;20780;-79
2022/05/31 09:23:35;;;;;;;3.42;2.38;;;;;;;19.14;51.96;100304.25;4994487;28;20501;-78
2022/05/31 09:26:51;;;;;;;2.78;2.38;;;;;;;19.13;52.45;100311.34;4976820;28;20132;-78
2022/05/31 09:29:23;;;;;;;2.35;2.15;;;;;;;19.00;52.14;100308.13;4966954;28;20058;-78
2022/05/31 09:32:21;;;;;;;4.85;2.50;;;;;;;19.06;52.28;100309.75;4994419;28;20058;-78
2022/05/31 09:35:17;;;;;;;3.55;2.55;;;;;;;19.07;52.41;100311.50;4994825;28;20054;-77
2022/05/31 09:38:20;;;;;;;2.95;2.42;;;;;;;19.27;52.38;100318.94;4951930;28;20057;-77
2022/05/31 09:41:09;;;;;;;5.20;2.35;;;;;;;19.28;52.16;100309.22;4991437;28;20092;-78
2022/05/31 09:44:13;;;;;;;3.78;2.35;;;;;;;19.31;52.35;100307.34;4991481;28;20054;-79
2022/05/31 09:47:03;;;;;;;4.60;2.35;;;;;;;19.33;52.20;100309.97;4960062;28;20069;-77
2022/05/31 09:49:39;;;;;;;3.03;2.25;;;;;;;19.35;52.02;100313.44;4973522;28;20416;-77
2022/05/31 09:52:20;;;;;;;4.18;2.25;;;;;;;19.35;52.23;100316.97;4974930;28;20509;-78
2022/05/31 09:58:36;;;;;;;3.03;1.88;;;;;;;19.22;52.41;100318.19;4973498;28;20050;-78
2022/05/31 10:01:31;;;;;;;3.47;1.90;;;;;;;19.21;52.16;100313.81;4935239;28;20059;-76
2022/05/31 10:04:29;;;;;;;1.85;1.50;;;;;;;19.29;52.56;100311.81;4986786;28;20058;-77
2022/05/31 10:07:07;;;;;;;;;;;;;;;19.27;52.57;100310.97;4984470;28;20081;-77
2022/05/31 10:09:39;;;;;;;2.28;1.88;;;;;;;19.32;52.43;100327.66;4974904;28;19926;-77
2022/05/31 10:12:13;;;;;;;2.53;1.52;;;;;;;19.28;53.11;100319.81;4974680;28;20057;-78
2022/05/31 10:14:51;;;;;;;5.35;2.03;;;;;;;19.33;52.87;100317.91;4973985;28;20062;-75
2022/05/31 10:17:42;;;;;;;4.72;1.80;;;;;;;19.30;52.80;100321.53;4975215;28;20059;-77
2022/05/31 10:20:26;;;;;;;2.13;1.70;;;;;;;19.30;53.04;100310.94;4957601;28;20149;-75
2022/05/31 10:23:13;;;;;;;3.40;1.70;;;;;;;19.24;53.53;100317.22;4974899;28;20105;-79
2022/05/31 10:25:59;;;;;;;3.22;1.70;;;;;;;19.33;52.80;100299.38;4974852;28;20070;-76
2022/05/31 10:28:35;;;;;;;2.95;2.00;;;;;;;19.48;53.36;100303.41;4984798;28;20562;-77
2022/05/31 10:31:14;;;;;;;2.05;1.60;;;;;;;19.49;52.85;100299.84;4957398;28;20062;-78
2022/05/31 10:33:55;;;;;;;2.25;2.03;;;;;;;19.56;53.36;100301.44;4974882;28;20069;-77
2022/05/31 10:36:26;;;;;;;2.58;1.95;;;;;;;19.73;53.08;100303.66;4974354;28;20047;-76
2022/05/31 10:38:54;;;;;;;5.72;2.42;;;;;;;19.76;53.42;100312.38;4975330;28;20057;-76
2022/05/31 10:41:31;;;;;;;2.97;1.95;;;;;;;19.73;53.23;100314.25;4973759;28;20078;-77
2022/05/31 10:44:33;;;;;;;2.65;1.88;;;;;;;19.60;53.65;100303.09;4973758;28;20080;-78
2022/05/31 10:47:09;;;;;;;2.53;1.80;;;;;;;19.51;54.48;100305.97;4974652;28;20149;-77
2022/05/31 10:49:39;;;;;;;2.97;2.08;;;;;;;19.39;54.57;100304.53;4974647;28;20161;-76
2022/05/31 10:52:35;;;;;;;2.17;2.00;;;;;;;19.30;54.75;100324.16;4956924;28;20113;-76
2022/05/31 10:55:27;;;;;;;1.85;1.75;;;;;;;19.47;54.72;100294.59;4974307;28;20141;-77
2022/05/31 10:58:22;;;;;;;3.92;2.25;;;;;;;19.56;54.23;100304.09;4974777;28;20062;-77
2022/05/31 11:01:39;;;;;;;2.47;2.00;;;;;;;19.54;54.49;100298.81;4974756;28;20066;-78
2022/05/31 11:04:30;;;;;;;5.25;2.30;;;;;;;19.60;54.79;100314.56;4948333;28;20055;-77
2022/05/31 11:06:57;;;;;;;;;;;;;;;19.46;54.85;100308.75;4975019;28;20410;-78
2022/05/31 11:12:44;;;;;;;3.08;1.80;;;;;;;19.55;55.54;100294.38;4975363;28;20057;-77
2022/05/31 11:15:25;;;;;;;3.08;1.65;;;;;;;19.57;55.15;100301.38;4977205;28;20535;-75
2022/05/31 11:18:11;;;;;;;2.58;2.33;;;;;;;19.63;55.44;100317.09;4986412;28;20064;-77
2022/05/31 11:20:56;;;;;;;5.25;2.15;;;;;;;19.57;55.01;100319.06;4981724;28;20054;-78
2022/05/31 11:24:01;;;;;;;3.72;2.10;;;;;;;19.24;55.82;100295.19;4975592;28;20082;-77
2022/05/31 11:26:39;;;;;;;6.07;2.70;;;;;;;19.31;55.85;100317.94;4936111;29;20548;-77
2022/05/31 11:29:46;;;;;;;2.55;1.80;;;;;;;19.14;55.97;100315.72;4939639;29;20158;-79
2022/05/31 11:32:29;;;;;;;2.15;1.85;;;;;;;19.06;56.44;100314.16;4939384;29;20062;-78
2022/05/31 11:35:15;;;;;;;1.88;1.77;;;;;;;19.01;57.04;100312.53;4939420;29;20067;-78
2022/05/31 11:38:12;;;;;;;4.30;2.30;;;;;;;18.90;57.20;100311.03;4939039;29;20062;-77
2022/05/31 11:41:02;;;;;;;5.03;2.53;;;;;;;18.83;57.74;100312.94;4912331;29;20150;-77
2022/05/31 11:43:50;;;;;;;2.58;1.90;;;;;;;18.95;57.86;100315.31;4940220;29;20052;-77
2022/05/31 11:46:30;;;;;;;2.33;1.95;;;;;;;18.98;57.56;100301.13;4938879;29;20057;-77
2022/05/31 11:49:07;;;;;;;1.90;1.80;;;;;;;18.99;57.13;100286.97;4938873;29;20510;-76
2022/05/31 11:52:11;;;;;;;2.85;1.80;;;;;;;19.08;56.88;100312.34;4939595;29;20059;-78
2022/05/31 11:58:30;;;;;;;5.10;2.10;;;;;;;18.97;57.66;100308.22;4940899;29;20502;-77
2022/05/31 12:01:09;;;;;;;3.30;2.10;;;;;;;19.01;57.85;100320.47;4962589;28;20066;-77
2022/05/31 12:04:19;;;;;;;2.63;2.28;;;;;;;19.06;57.70;100323.00;4963258;28;20036;-77
2022/05/31 12:07:10;;;;;;;3.40;2.67;;;;;;;19.06;57.77;100315.06;4938922;29;20386;-77
2022/05/31 12:09:52;;;;;;;3.97;2.40;;;;;;;19.07;57.91;100306.19;4939139;29;20055;-77
2022/05/31 12:12:32;;;;;;;3.97;2.65;;;;;;;19.09;57.90;100303.53;4939074;29;20060;-77
2022/05/31 12:18:39;;;;;;;3.80;2.40;;;;;;;19.18;57.98;100305.94;4904555;29;20067;-77
2022/05/31 12:21:17;;;;;;;5.95;2.35;;;;;;;19.21;56.99;100301.44;4938461;29;20562;-75
2022/05/31 12:23:55;;;;;;;3.33;2.20;;;;;;;19.22;56.87;100311.09;4938911;29;20060;-77
2022/05/31 12:27:01;;;;;;;2.65;2.45;;;;;;;19.21;57.00;100312.03;4939362;29;20056;-78
2022/05/31 12:29:33;;;;;;;6.28;2.35;;;;;;;19.22;57.37;100310.25;4931783;29;20051;-78
2022/05/31 12:32:21;;;;;;;3.13;2.33;;;;;;;19.21;57.08;100301.44;4938901;29;20059;-77
2022/05/31 12:34:50;;;;;;;3.13;2.30;;;;;;;19.26;57.16;100314.56;4939101;29;20060;-78
2022/05/31 12:37:19;;;;;;;2.65;2.35;;;;;;;19.33;56.66;100308.19;4954220;29;20055;-76
2022/05/31 12:39:50;;;;;;;3.13;2.50;;;;;;;19.28;57.01;100294.19;4956439;29;20035;-78
2022/05/31 12:42:35;;;;;;;4.20;2.70;;;;;;;19.38;57.07;100306.31;4957356;29;20056;-78
2022/05/31 12:45:27;;;;;;;8.25;2.83;;;;;;;19.47;56.67;100302.53;4939542;29;20302;-77